Time;durP1;ratioP1;P1;durP2;ratioP2;P2;SDS_P1;SDS_P2;PMS_P1;PMS_P2;Temp;Humidity;BMP_temperature;BMP_pressure;BME280_temperature;BME280_humidity;BME280_pressure;Samples;Min_cycle;Max_cycle;Signal;HPM_P1;HPM_P2
2023/10/03 00:01:40;;;;;;;26.33;9.73;;;;;;;20.84;59.44;101020.19;4929673;28;125096;-78
2023/10/03 00:04:08;;;;;;;27.73;10.32;;;;;;;20.86;59.47;101018.22;4928212;28;112116;-78
2023/10/03 00:06:38;;;;;;;28.17;10.40;;;;;;;20.87;59.54;101004.63;4947678;28;114424;-79
2023/10/03 00:09:06;;;;;;;26.85;11.05;;;;;;;20.88;59.45;100995.56;4948042;28;123926;-78
2023/10/03 00:11:35;;;;;;;28.50;10.18;;;;;;;20.92;59.54;101001.53;4948071;28;123586;-78
2023/10/03 00:14:07;;;;;;;25.50;10.23;;;;;;;20.93;59.55;100987.09;4938953;28;113181;-78
2023/10/03 00:16:34;;;;;;;29.05;11.13;;;;;;;20.94;59.45;100995.03;4945739;28;115817;-78
2023/10/03 00:19:02;;;;;;;26.38;10.38;;;;;;;20.97;59.32;100988.53;4950115;28;123743;-77
2023/10/03 00:21:29;;;;;;;25.52;9.80;;;;;;;21.00;59.42;100980.19;4931181;28;124310;-78
2023/10/03 00:23:56;;;;;;;26.38;11.07;;;;;;;21.01;59.51;100968.44;4946506;28;114623;-78
2023/10/03 00:26:24;;;;;;;28.60;10.80;;;;;;;21.05;59.44;100964.47;4934320;28;113413;-78
2023/10/03 00:28:51;;;;;;;26.25;10.65;;;;;;;21.09;59.49;100965.06;4951711;28;124313;-78
2023/10/03 00:31:19;;;;;;;28.52;11.25;;;;;;;21.12;59.35;100964.81;4937800;28;123447;-78
2023/10/03 00:33:47;;;;;;;28.15;10.90;;;;;;;21.16;59.43;100960.84;4952216;28;113540;-78
2023/10/03 00:36:24;;;;;;;28.55;11.23;;;;;;;21.17;59.39;100963.41;4934224;28;113184;-78
2023/10/03 00:38:51;;;;;;;26.88;11.05;;;;;;;21.21;59.29;100958.63;4966374;28;123667;-78
2023/10/03 00:41:22;;;;;;;25.80;10.43;;;;;;;21.24;59.06;100952.09;4952118;28;123429;-78
2023/10/03 00:44:00;;;;;;;29.20;11.80;;;;;;;21.28;59.17;100953.53;4930651;28;115039;-78
2023/10/03 00:46:30;;;;;;;27.42;10.80;;;;;;;21.31;58.99;100947.88;4936490;28;114250;-78
2023/10/03 00:48:58;;;;;;;27.83;11.20;;;;;;;21.33;59.07;100944.03;4950881;28;124085;-78
2023/10/03 00:51:26;;;;;;;29.88;10.85;;;;;;;21.35;58.97;100938.50;4934333;28;124236;-78
2023/10/03 00:53:56;;;;;;;28.63;10.82;;;;;;;21.37;58.92;100936.53;4936858;28;114614;-77
2023/10/03 00:56:24;;;;;;;31.15;11.30;;;;;;;21.38;58.78;100927.47;4950272;28;115763;-77
2023/10/03 00:58:51;;;;;;;28.88;11.50;;;;;;;21.39;58.74;100923.78;4953602;28;123179;-78
2023/10/03 01:01:18;;;;;;;27.52;11.35;;;;;;;21.39;58.64;100907.63;4954555;28;124083;-78
2023/10/03 01:03:47;;;;;;;29.42;11.40;;;;;;;21.40;58.71;100914.72;4931097;28;114655;-78
2023/10/03 01:06:15;;;;;;;29.25;11.65;;;;;;;21.40;58.63;100898.56;4944793;28;113577;-78
2023/10/03 01:08:47;;;;;;;27.65;11.32;;;;;;;21.39;58.53;100880.66;4936653;28;123118;-78
2023/10/03 01:11:19;;;;;;;31.33;11.02;;;;;;;21.41;58.60;100876.00;4943425;28;124139;-77
2023/10/03 01:13:49;;;;;;;28.30;11.10;;;;;;;21.41;58.54;100878.69;4931786;28;114799;-78
2023/10/03 01:16:28;;;;;;;25.20;9.82;;;;;;;21.42;58.48;100856.16;4936813;28;114344;-78
2023/10/03 01:18:59;;;;;;;29.73;11.20;;;;;;;21.43;58.45;100860.53;4947448;28;124229;-78
2023/10/03 01:21:28;;;;;;;30.67;11.73;;;;;;;21.43;58.38;100849.75;4928259;28;124105;-77
2023/10/03 01:23:55;;;;;;;28.83;10.57;;;;;;;21.44;58.46;100846.09;4933652;28;114885;-79
2023/10/03 01:26:24;;;;;;;28.63;11.43;;;;;;;21.45;58.33;100845.09;4937536;28;113768;-78
2023/10/03 01:28:52;;;;;;;26.40;10.38;;;;;;;21.45;58.40;100837.03;4937529;28;123771;-78
2023/10/03 01:31:19;;;;;;;28.92;11.25;;;;;;;21.44;58.57;100831.75;4950272;28;124311;-78
2023/10/03 01:33:47;;;;;;;31.63;11.50;;;;;;;21.43;58.34;100822.81;4950252;28;115250;-78
2023/10/03 01:36:14;;;;;;;28.67;11.82;;;;;;;21.43;58.29;100822.81;4948779;28;115157;-78
2023/10/03 01:38:42;;;;;;;29.17;11.10;;;;;;;21.44;58.40;100819.16;4916536;28;124013;-78
2023/10/03 01:41:09;;;;;;;27.70;11.15;;;;;;;21.45;58.36;100814.63;4914217;28;124290;-78
2023/10/03 01:43:38;;;;;;;27.85;10.60;;;;;;;21.44;58.28;100813.78;4950398;28;114760;-78
2023/10/03 01:46:07;;;;;;;26.92;11.52;;;;;;;21.47;58.36;100812.63;4922540;28;114084;-78
2023/10/03 01:48:35;;;;;;;31.70;11.50;;;;;;;21.47;58.30;100808.09;4950629;28;124578;-78
2023/10/03 01:51:03;;;;;;;32.17;11.15;;;;;;;21.47;58.30;100799.16;4951414;28;124314;-78
2023/10/03 01:53:31;;;;;;;32.28;11.30;;;;;;;21.48;58.25;100799.03;4944039;28;114009;-78
2023/10/03 01:55:58;;;;;;;27.25;10.25;;;;;;;21.50;58.33;100801.59;4953441;28;113755;-78
2023/10/03 01:58:25;;;;;;;29.45;11.15;;;;;;;21.49;58.29;100789.97;4964337;28;124389;-78
2023/10/03 02:00:53;;;;;;;32.22;11.57;;;;;;;21.51;58.28;100787.09;4944793;28;123437;-78
2023/10/03 02:03:21;;;;;;;30.30;11.90;;;;;;;21.52;58.21;100789.66;4933253;28;113889;-78
2023/10/03 02:05:48;;;;;;;28.40;10.82;;;;;;;21.55;57.99;100780.47;4943627;28;113858;-78
2023/10/03 02:08:19;;;;;;;27.48;11.15;;;;;;;21.55;58.25;100789.38;4927896;28;125535;-78
2023/10/03 02:10:49;;;;;;;30.75;10.98;;;;;;;21.55;58.13;100789.38;4959156;28;122673;-78
2023/10/03 02:13:17;;;;;;;33.60;11.32;;;;;;;21.55;58.12;100789.38;4928635;28;114104;-78
2023/10/03 02:15:47;;;;;;;30.75;11.02;;;;;;;21.57;58.11;100782.00;4951716;28;113830;-78
2023/10/03 02:18:18;;;;;;;27.35;9.80;;;;;;;21.58;58.14;100782.84;4947894;28;123271;-78
2023/10/03 02:21:01;;;;;;;26.90;10.55;;;;;;;21.60;58.26;100780.03;4931974;28;124287;-78
2023/10/03 02:23:29;;;;;;;26.65;10.15;;;;;;;21.64;58.24;100765.25;4948203;28;114644;-78
2023/10/03 02:26:06;;;;;;;27.65;9.85;;;;;;;21.68;57.85;100766.66;4950514;28;115398;-78
2023/10/03 02:28:34;;;;;;;26.85;9.88;;;;;;;21.75;58.19;100767.78;4930973;28;122601;-78
2023/10/03 02:31:07;;;;;;;28.65;10.45;;;;;;;21.80;58.07;100765.53;4944763;28;123807;-78
2023/10/03 02:33:41;;;;;;;25.63;10.15;;;;;;;21.85;58.07;100757.88;4950055;28;114276;-80
2023/10/03 02:36:10;;;;;;;24.33;9.63;;;;;;;21.91;57.94;100762.69;4937149;28;113242;-79
2023/10/03 02:38:38;;;;;;;24.20;9.57;;;;;;;21.95;58.03;100753.28;4954850;28;122377;-78
2023/10/03 02:41:07;;;;;;;24.23;9.75;;;;;;;22.01;57.84;100751.03;4925572;28;123438;-78
2023/10/03 02:43:43;;;;;;;23.33;9.20;;;;;;;22.05;57.71;100741.63;4931001;28;114018;-78
2023/10/03 02:46:21;;;;;;;26.23;10.02;;;;;;;22.08;58.11;100736.81;4935047;28;113926;-78
2023/10/03 02:48:51;;;;;;;24.25;10.00;;;;;;;22.13;57.58;100749.84;4940027;28;123267;-79
2023/10/03 02:51:18;;;;;;;25.73;9.63;;;;;;;22.17;57.54;100748.56;4929916;28;123476;-78
2023/10/03 02:53:46;;;;;;;25.60;10.05;;;;;;;22.20;57.45;100750.94;4914035;28;113653;-79
2023/10/03 02:56:14;;;;;;;25.83;9.95;;;;;;;22.26;57.02;100758.47;4927761;28;113708;-78
2023/10/03 02:58:41;;;;;;;28.08;10.30;;;;;;;22.30;57.36;100746.41;4925608;28;124331;-78
2023/10/03 03:01:09;;;;;;;24.55;9.15;;;;;;;22.35;57.15;100749.50;4950054;28;123822;-78
2023/10/03 03:03:38;;;;;;;21.42;8.55;;;;;;;22.41;56.87;100752.63;4932020;28;113059;-78
2023/10/03 03:06:14;;;;;;;29.27;10.15;;;;;;;22.47;56.91;100768.22;4933022;28;112590;-79
2023/10/03 03:08:44;;;;;;;22.75;8.85;;;;;;;22.51;56.93;100764.25;4929102;28;125580;-78
2023/10/03 03:11:15;;;;;;;25.23;9.15;;;;;;;22.57;56.86;100774.44;4939756;28;123557;-78
2023/10/03 03:13:43;;;;;;;23.20;8.48;;;;;;;22.63;56.66;100776.53;4932730;28;115568;-78
2023/10/03 03:16:14;;;;;;;21.77;8.55;;;;;;;22.67;56.74;100764.41;4931793;28;114868;-78
2023/10/03 03:18:42;;;;;;;24.63;8.90;;;;;;;22.73;56.54;100769.25;4936413;28;124032;-79
2023/10/03 03:21:16;;;;;;;21.65;7.97;;;;;;;22.79;56.20;100783.13;4939156;28;124735;-78
2023/10/03 03:23:56;;;;;;;19.20;8.27;;;;;;;22.84;56.39;100778.13;4921550;28;114813;-78
2023/10/03 03:26:36;;;;;;;20.63;8.52;;;;;;;22.89;56.36;100778.53;4932399;28;113385;-78
2023/10/03 03:29:06;;;;;;;20.23;8.43;;;;;;;22.96;56.15;100773.38;4931907;28;124850;-78
2023/10/03 03:31:33;;;;;;;21.77;8.00;;;;;;;23.00;56.10;100774.75;4949736;28;124155;-78
2023/10/03 03:34:01;;;;;;;21.08;8.85;;;;;;;23.03;56.08;100771.75;4948493;28;113992;-78
2023/10/03 03:36:30;;;;;;;22.45;9.00;;;;;;;23.06;55.87;100758.84;4932441;28;113522;-78
2023/10/03 03:38:59;;;;;;;22.65;7.82;;;;;;;23.08;55.63;100764.94;4956618;28;124014;-78
2023/10/03 03:41:29;;;;;;;19.65;8.40;;;;;;;23.11;55.63;100767.34;4949704;28;124384;-78
2023/10/03 03:43:56;;;;;;;20.40;8.60;;;;;;;23.12;55.66;100752.81;4923187;28;114336;-79
2023/10/03 03:46:24;;;;;;;20.30;8.38;;;;;;;23.15;55.61;100750.81;4932703;28;113130;-78
2023/10/03 03:48:52;;;;;;;20.92;8.18;;;;;;;23.16;55.74;100757.91;4931665;28;124373;-78
2023/10/03 03:51:19;;;;;;;19.42;7.38;;;;;;;23.18;55.75;100750.50;4941729;28;123182;-78
2023/10/03 03:53:47;;;;;;;18.05;7.13;;;;;;;23.20;55.83;100759.31;4933320;28;114115;-78
2023/10/03 03:56:16;;;;;;;22.08;7.93;;;;;;;23.23;55.74;100759.00;4947584;28;113963;-79
2023/10/03 03:58:45;;;;;;;17.85;7.97;;;;;;;23.24;55.90;100758.81;4938081;28;124275;-78
2023/10/03 04:01:23;;;;;;;17.23;7.45;;;;;;;23.25;55.72;100767.81;4937477;28;123703;-78
2023/10/03 04:03:51;;;;;;;15.60;6.63;;;;;;;23.26;55.61;100759.56;4954887;28;115460;-78
2023/10/03 04:06:19;;;;;;;19.25;7.75;;;;;;;23.27;55.63;100760.41;4953348;28;114967;-78
2023/10/03 04:08:46;;;;;;;20.17;8.25;;;;;;;23.28;55.57;100764.78;4945752;28;124722;-78
2023/10/03 04:11:33;;;;;;;19.17;7.50;;;;;;;23.28;55.57;100762.06;4959438;28;123298;-78
2023/10/03 04:14:04;;;;;;;19.02;7.47;;;;;;;23.27;55.67;100771.19;4964313;28;113222;-78
2023/10/03 04:16:38;;;;;;;19.17;7.57;;;;;;;23.27;55.67;100765.78;4951612;28;114028;-78
2023/10/03 04:19:06;;;;;;;17.80;6.90;;;;;;;23.26;55.46;100769.50;4950691;28;123837;-78
2023/10/03 04:21:35;;;;;;;16.50;7.55;;;;;;;23.27;55.76;100776.59;4950583;28;124481;-78
2023/10/03 04:24:04;;;;;;;14.60;6.55;;;;;;;23.28;55.72;100789.09;4940068;28;113619;-78
2023/10/03 04:26:36;;;;;;;20.13;6.63;;;;;;;23.29;55.59;100790.81;4952034;28;114684;-78
2023/10/03 04:29:04;;;;;;;18.33;6.93;;;;;;;23.30;55.51;100787.09;4950229;28;124021;-78
2023/10/03 04:31:31;;;;;;;16.25;6.78;;;;;;;23.30;55.75;100793.38;4920212;28;123684;-78
2023/10/03 04:33:59;;;;;;;20.00;6.68;;;;;;;23.31;55.46;100789.66;4950197;28;114170;-78
2023/10/03 04:36:26;;;;;;;15.32;5.90;;;;;;;23.33;55.90;100794.91;4947674;28;113985;-78
2023/10/03 04:38:53;;;;;;;13.32;6.22;;;;;;;23.34;55.59;100793.91;4952539;28;123959;-78
2023/10/03 04:41:21;;;;;;;13.10;6.13;;;;;;;23.35;55.93;100808.28;4945017;28;123924;-78
2023/10/03 04:43:49;;;;;;;16.17;6.78;;;;;;;23.35;55.74;100806.41;4961088;28;113482;-78
2023/10/03 04:46:17;;;;;;;16.42;6.10;;;;;;;23.36;55.78;100808.13;4955434;28;113725;-78
2023/10/03 04:48:45;;;;;;;15.63;5.40;;;;;;;23.37;55.79;100807.09;4952004;28;123765;-77
2023/10/03 04:51:15;;;;;;;13.13;5.75;;;;;;;23.37;55.45;100804.41;4949068;28;123734;-77
2023/10/03 04:53:42;;;;;;;13.27;5.50;;;;;;;23.36;55.47;100808.13;4953515;28;113590;-78
2023/10/03 04:56:09;;;;;;;13.02;5.60;;;;;;;23.36;55.45;100810.81;4948530;28;114844;-78
2023/10/03 04:58:37;;;;;;;15.10;5.32;;;;;;;23.36;55.44;100808.13;4949293;28;124844;-78
2023/10/03 05:01:05;;;;;;;11.40;5.30;;;;;;;23.35;55.49;100810.97;4951189;28;124396;-79
2023/10/03 05:03:32;;;;;;;14.02;5.68;;;;;;;23.34;55.64;100815.53;4951606;28;114213;-78
2023/10/03 05:06:01;;;;;;;13.73;5.80;;;;;;;23.35;55.60;100821.78;4960016;28;113871;-78
2023/10/03 05:08:28;;;;;;;14.02;5.57;;;;;;;23.33;55.52;100830.03;4951738;28;124025;-77
2023/10/03 05:10:56;;;;;;;11.77;4.90;;;;;;;23.32;55.42;100833.75;4961563;28;123338;-78
2023/10/03 05:13:23;;;;;;;15.43;5.95;;;;;;;23.30;55.64;100857.34;4947379;28;114407;-78
2023/10/03 05:15:53;;;;;;;14.45;5.53;;;;;;;23.30;55.83;100841.16;4950997;28;114505;-78
2023/10/03 05:18:20;;;;;;;12.18;5.28;;;;;;;23.30;55.60;100830.34;4948892;28;123807;-78
2023/10/03 05:20:49;;;;;;;14.18;5.35;;;;;;;23.29;55.69;100844.88;4950669;28;123367;-78
2023/10/03 05:23:17;;;;;;;12.25;5.05;;;;;;;23.27;55.54;100863.94;4968632;28;113818;-78
2023/10/03 05:25:44;;;;;;;9.20;4.13;;;;;;;23.24;55.22;100879.59;4968734;28;113198;-78
2023/10/03 05:28:11;;;;;;;8.48;4.13;;;;;;;23.19;55.33;100884.59;4959022;28;122630;-78
2023/10/03 05:30:39;;;;;;;10.90;4.22;;;;;;;23.17;55.12;100905.50;4956109;28;122072;-78
2023/10/03 05:33:07;;;;;;;9.20;3.88;;;;;;;23.12;55.04;100898.72;4952833;28;112442;-77
2023/10/03 05:35:36;;;;;;;9.52;4.30;;;;;;;23.09;55.05;100888.22;4931047;28;113332;-78
2023/10/03 05:38:08;;;;;;;11.18;3.90;;;;;;;23.06;54.92;100883.09;4947000;28;122278;-78
2023/10/03 05:40:35;;;;;;;13.15;4.25;;;;;;;23.02;55.08;100881.69;4932098;28;122916;-77
2023/10/03 05:43:05;;;;;;;8.45;4.00;;;;;;;22.97;55.10;100862.34;4948129;28;115563;-77
2023/10/03 05:45:34;;;;;;;6.95;3.92;;;;;;;22.94;54.90;100859.94;4938083;28;114324;-77
2023/10/03 05:48:03;;;;;;;10.00;4.22;;;;;;;22.90;54.86;100872.03;4934790;28;123954;-78
2023/10/03 05:50:32;;;;;;;7.45;4.38;;;;;;;22.84;55.08;100861.84;4929264;28;122912;-78
2023/10/03 05:53:01;;;;;;;10.80;4.18;;;;;;;22.81;54.98;100868.41;4936048;28;114886;-77
2023/10/03 05:55:28;;;;;;;10.05;4.38;;;;;;;22.79;55.13;100874.94;4943737;28;112834;-78
2023/10/03 05:57:55;;;;;;;7.65;3.90;;;;;;;22.77;55.06;100877.78;4935923;28;124964;-78
2023/10/03 06:00:23;;;;;;;6.68;3.72;;;;;;;22.73;54.99;100876.38;4935117;28;123692;-78
2023/10/03 06:02:50;;;;;;;10.80;4.00;;;;;;;22.71;54.98;100873.81;4937327;28;113849;-77
2023/10/03 06:05:18;;;;;;;9.65;4.13;;;;;;;22.70;55.01;100869.44;4945723;28;114136;-78
2023/10/03 06:07:45;;;;;;;8.13;4.32;;;;;;;22.68;54.89;100878.69;4920957;28;124118;-78
2023/10/03 06:10:16;;;;;;;8.23;4.20;;;;;;;22.66;55.10;100878.84;4935362;28;124340;-77
2023/10/03 06:12:44;;;;;;;8.93;4.28;;;;;;;22.65;55.22;100874.41;4944106;28;115214;-78
2023/10/03 06:15:12;;;;;;;9.07;4.65;;;;;;;22.64;55.28;100878.13;4917936;28;113060;-78
2023/10/03 06:17:42;;;;;;;11.20;4.90;;;;;;;22.64;55.22;100888.94;4935592;28;124029;-78
2023/10/03 06:20:14;;;;;;;9.32;4.35;;;;;;;22.65;55.22;100889.78;4937101;28;123685;-79
2023/10/03 06:22:42;;;;;;;8.95;4.65;;;;;;;22.62;55.35;100896.31;4924032;28;113266;-78
2023/10/03 06:25:11;;;;;;;7.03;4.38;;;;;;;22.64;55.37;100888.94;4927215;28;114224;-78
2023/10/03 06:27:38;;;;;;;7.75;4.38;;;;;;;22.63;55.29;100880.97;4950755;28;123277;-77
2023/10/03 06:30:07;;;;;;;7.38;4.65;;;;;;;22.62;55.57;100880.13;4949565;28;123692;-78
2023/10/03 06:32:35;;;;;;;9.05;4.72;;;;;;;22.60;55.66;100898.28;4949908;28;115823;-77
2023/10/03 06:35:05;;;;;;;11.35;4.65;;;;;;;22.60;55.50;100909.09;4932923;28;114798;-78
2023/10/03 06:37:33;;;;;;;8.43;4.47;;;;;;;22.59;55.45;100918.22;4928902;28;123475;-78
2023/10/03 06:40:06;;;;;;;6.85;4.20;;;;;;;22.59;55.58;100918.22;4944467;28;124555;-78
2023/10/03 06:42:37;;;;;;;7.63;4.22;;;;;;;22.59;55.50;100923.59;4941805;28;113938;-78
2023/10/03 06:45:05;;;;;;;8.70;4.50;;;;;;;22.58;55.60;100921.88;4956381;28;113245;-78
2023/10/03 06:47:33;;;;;;;9.80;4.63;;;;;;;22.58;55.67;100927.28;4930400;28;124246;-78
2023/10/03 06:50:05;;;;;;;11.13;4.78;;;;;;;22.57;55.65;100925.59;4931260;28;123562;-78
2023/10/03 06:52:34;;;;;;;7.28;4.13;;;;;;;22.56;55.67;100934.69;4930872;28;112294;-77
2023/10/03 06:55:04;;;;;;;9.65;4.45;;;;;;;22.58;55.66;100938.09;4931802;28;114692;-79
2023/10/03 06:57:32;;;;;;;10.93;5.00;;;;;;;22.57;55.77;100952.59;4931114;28;124066;-79
2023/10/03 07:00:00;;;;;;;8.85;4.25;;;;;;;22.56;55.79;100956.28;4931445;28;122923;-78
2023/10/03 07:02:27;;;;;;;7.20;4.07;;;;;;;22.57;55.79;100951.75;4931366;28;114453;-78
2023/10/03 07:04:54;;;;;;;9.38;4.32;;;;;;;22.57;55.88;100963.41;4932545;28;113108;-78
2023/10/03 07:07:22;;;;;;;8.35;4.53;;;;;;;22.53;55.76;100961.97;4946486;28;124571;-79
2023/10/03 07:09:49;;;;;;;7.53;3.90;;;;;;;22.51;55.88;100963.97;4940589;28;123496;-78
2023/10/03 07:12:17;;;;;;;9.02;4.43;;;;;;;22.48;56.09;100977.75;4946301;28;113891;-79
2023/10/03 07:14:48;;;;;;;6.32;3.80;;;;;;;22.44;55.98;100974.47;4932957;28;114457;-78
2023/10/03 07:17:16;;;;;;;9.93;3.75;;;;;;;22.42;55.98;100975.63;4931195;28;123908;-78
2023/10/03 07:19:48;;;;;;;7.82;3.67;;;;;;;22.35;56.12;100992.38;4932516;28;123963;-79
2023/10/03 07:22:19;;;;;;;9.48;3.85;;;;;;;22.30;56.38;100989.28;4944185;28;115506;-78
2023/10/03 07:24:46;;;;;;;11.18;4.40;;;;;;;22.25;56.41;100975.34;4931010;28;114178;-78
2023/10/03 07:27:15;;;;;;;8.82;4.70;;;;;;;22.23;56.60;100988.09;4939829;28;123828;-78
2023/10/03 07:29:42;;;;;;;8.38;4.43;;;;;;;22.20;56.73;100976.72;4944748;28;122924;-78
2023/10/03 07:32:14;;;;;;;7.60;4.97;;;;;;;22.14;56.99;100967.34;4940181;28;114027;-79
2023/10/03 07:34:43;;;;;;;9.80;4.88;;;;;;;22.11;57.29;100967.63;4948039;28;112947;-78
2023/10/03 07:37:11;;;;;;;8.50;4.65;;;;;;;22.08;57.47;100962.53;4949648;28;125054;-78
2023/10/03 07:39:39;;;;;;;11.32;5.72;;;;;;;22.06;57.55;100969.91;4949515;28;123806;-78
2023/10/03 07:42:08;;;;;;;12.18;5.32;;;;;;;22.04;57.70;100971.88;4948244;28;113889;-79
2023/10/03 07:44:36;;;;;;;16.70;5.45;;;;;;;22.03;57.90;100964.78;4947949;28;113691;-78
2023/10/03 07:47:04;;;;;;;10.88;5.30;;;;;;;22.00;57.99;100965.94;4945420;28;123345;-79
2023/10/03 07:49:31;;;;;;;12.13;5.30;;;;;;;22.01;58.10;100975.72;4948986;28;124737;-77
2023/10/03 07:52:04;;;;;;;16.33;6.13;;;;;;;22.01;58.17;100985.66;4930290;28;113213;-78
2023/10/03 07:54:32;;;;;;;11.85;5.75;;;;;;;22.02;58.33;100984.66;4945026;28;113795;-79
2023/10/03 07:57:04;;;;;;;10.73;5.95;;;;;;;22.03;58.35;100991.78;4947480;28;124580;-78
2023/10/03 07:59:32;;;;;;;10.13;5.72;;;;;;;22.04;58.31;101004.25;4932678;28;123234;-78
2023/10/03 08:02:05;;;;;;;12.27;5.85;;;;;;;22.07;58.35;101012.06;4946989;28;114260;-78
2023/10/03 08:04:32;;;;;;;9.63;5.82;;;;;;;22.09;58.51;101026.25;4947292;28;113725;-78
2023/10/03 08:07:01;;;;;;;11.95;5.95;;;;;;;22.12;58.47;101028.69;4945139;28;124762;-78
2023/10/03 08:09:28;;;;;;;9.48;5.43;;;;;;;22.14;58.43;101037.50;4929282;28;126577;-77
2023/10/03 08:11:56;;;;;;;11.70;6.22;;;;;;;22.14;58.39;101032.94;4944013;28;115465;-77
2023/10/03 08:14:25;;;;;;;12.90;5.85;;;;;;;22.16;58.38;101024.72;4947612;28;114788;-78
2023/10/03 08:16:56;;;;;;;8.00;5.20;;;;;;;22.17;58.52;101035.38;4944409;28;123574;-77
2023/10/03 08:19:26;;;;;;;10.98;5.57;;;;;;;22.19;58.41;101046.03;4945800;28;122712;-78
2023/10/03 08:21:55;;;;;;;10.48;5.53;;;;;;;22.18;58.49;101052.41;4942805;28;115349;-78
2023/10/03 08:24:28;;;;;;;11.65;5.45;;;;;;;22.19;58.48;101062.22;4955708;28;114310;-77
2023/10/03 08:27:01;;;;;;;9.98;5.88;;;;;;;22.17;58.85;101069.59;4942196;28;123334;-78
2023/10/03 08:29:28;;;;;;;8.32;5.07;;;;;;;22.17;58.56;101053.41;4947360;28;124770;-78
2023/10/03 08:31:57;;;;;;;14.45;5.50;;;;;;;22.17;58.73;101050.72;4943571;28;113970;-78
2023/10/03 08:34:29;;;;;;;9.18;5.10;;;;;;;22.17;58.84;101080.41;4937265;28;113797;-78
2023/10/03 08:37:01;;;;;;;10.45;4.85;;;;;;;22.16;58.61;101081.38;4928496;28;123792;-78
2023/10/03 08:39:32;;;;;;;10.18;5.15;;;;;;;22.16;58.77;101078.69;4947122;28;123362;-78
2023/10/03 08:42:12;;;;;;;8.45;4.35;;;;;;;22.16;58.60;101090.31;4939256;28;114154;-78
2023/10/03 08:44:53;;;;;;;10.82;4.45;;;;;;;22.15;58.46;101098.53;4949261;28;114107;-77
2023/10/03 08:47:30;;;;;;;9.95;4.82;;;;;;;22.15;58.54;101093.16;4950300;28;124170;-78
2023/10/03 08:50:10;;;;;;;8.98;5.05;;;;;;;22.17;58.69;101093.88;4933140;28;122452;-78
2023/10/03 08:52:49;;;;;;;8.45;4.45;;;;;;;22.24;58.78;101100.41;4921419;28;113167;-77
2023/10/03 08:55:21;;;;;;;6.75;4.20;;;;;;;22.29;58.73;101098.19;4940075;28;114234;-78
2023/10/03 08:57:49;;;;;;;6.97;3.58;;;;;;;22.35;58.22;101115.66;4929266;28;124035;-77
2023/10/03 09:00:18;;;;;;;4.60;2.80;;;;;;;22.35;58.10;101111.13;4915263;28;122622;-78
2023/10/03 09:02:47;;;;;;;4.45;2.35;;;;;;;22.39;57.71;101129.75;4934650;28;115372;-77
2023/10/03 09:05:20;;;;;;;4.75;2.10;;;;;;;22.41;57.61;101115.09;4943312;28;115445;-77
2023/10/03 09:07:49;;;;;;;4.72;1.77;;;;;;;22.43;57.31;101131.16;4933021;28;125321;-78
2023/10/03 09:10:24;;;;;;;3.10;1.55;;;;;;;22.45;57.09;101139.97;4943470;28;122777;-77
2023/10/03 09:12:56;;;;;;;4.88;1.45;;;;;;;22.45;56.79;101142.66;4938733;28;113903;-78
2023/10/03 09:15:23;;;;;;;3.45;1.58;;;;;;;22.44;56.86;101130.19;4951082;28;113777;-78
2023/10/03 09:17:52;;;;;;;4.18;1.40;;;;;;;22.42;56.75;101165.41;4938520;28;123432;-77
2023/10/03 09:20:21;;;;;;;1.80;0.73;;;;;;;22.35;56.51;101175.88;4966151;28;124231;-77
2023/10/03 09:23:01;;;;;;;2.40;0.90;;;;;;;22.17;56.36;101193.72;4959527;28;113915;-78
2023/10/03 09:25:28;;;;;;;2.65;0.80;;;;;;;21.95;56.65;101206.38;4950728;28;114500;-78
2023/10/03 09:28:03;;;;;;;2.00;1.00;;;;;;;21.72;56.87;101207.53;4952543;28;123944;-78
2023/10/03 09:30:37;;;;;;;1.60;0.90;;;;;;;21.54;57.10;101213.50;4923601;28;124255;-79
2023/10/03 09:33:06;;;;;;;2.63;1.05;;;;;;;21.43;57.56;101210.84;4946705;28;114778;-78
2023/10/03 09:35:33;;;;;;;2.00;0.88;;;;;;;21.37;57.99;101216.75;4953100;28;113702;-79
2023/10/03 09:38:08;;;;;;;2.63;1.05;;;;;;;21.30;58.25;101220.97;4960451;28;122989;-79
2023/10/03 09:40:50;;;;;;;3.33;1.08;;;;;;;21.28;58.66;101222.94;4949687;28;124611;-79
2023/10/03 09:43:19;;;;;;;2.47;1.02;;;;;;;21.28;58.64;101228.31;4964717;28;114231;-79
2023/10/03 09:45:47;;;;;;;1.90;0.90;;;;;;;21.28;58.79;101239.94;4944480;28;113719;-78
2023/10/03 09:48:15;;;;;;;2.95;1.05;;;;;;;21.29;58.99;101251.59;4948110;28;123423;-78
2023/10/03 09:50:53;;;;;;;3.78;1.23;;;;;;;21.28;58.83;101257.94;4950203;28;124130;-78
2023/10/03 09:53:30;;;;;;;7.97;1.50;;;;;;;21.22;58.94;101248.53;4939526;28;116067;-78
2023/10/03 09:55:57;;;;;;;4.10;1.38;;;;;;;21.22;59.07;101239.63;4950818;28;114204;-78
2023/10/03 09:58:31;;;;;;;4.15;1.30;;;;;;;21.20;59.06;101245.97;4966504;28;124026;-77
2023/10/03 10:00:59;;;;;;;4.53;1.38;;;;;;;21.19;58.95;101236.19;4949122;28;125192;-78
2023/10/03 10:03:38;;;;;;;2.63;0.85;;;;;;;21.18;58.89;101250.63;4957640;28;114941;-78
2023/10/03 10:06:24;;;;;;;2.75;1.00;;;;;;;21.17;58.86;101248.94;4931620;28;111927;-78
2023/10/03 10:09:23;;;;;;;3.70;1.20;;;;;;;21.17;58.95;101254.34;4919086;28;122968;-78
2023/10/03 10:12:18;;;;;;;2.13;1.00;;;;;;;21.19;58.92;101263.13;4941611;28;123897;-79
2023/10/03 10:15:01;;;;;;;2.80;1.15;;;;;;;21.19;58.79;101257.75;4938370;28;113405;-77
2023/10/03 10:17:52;;;;;;;5.63;1.15;;;;;;;21.19;58.87;101265.84;4937287;28;112459;-79
2023/10/03 10:20:33;;;;;;;4.25;1.55;;;;;;;21.19;58.75;101268.53;4939471;28;122909;-79
2023/10/03 10:25:41;;;;;;;2.30;0.60;;;;;;;21.14;58.28;101286.91;4938749;28;113308;-79
2023/10/03 10:28:11;;;;;;;1.63;0.65;;;;;;;21.04;57.99;101302.13;4937628;28;114358;-79
2023/10/03 10:31:10;;;;;;;3.60;0.90;;;;;;;20.92;57.97;101330.03;4936638;28;122446;-79
2023/10/03 10:33:38;;;;;;;2.78;0.70;;;;;;;20.84;57.98;101332.50;4954810;28;124039;-79
2023/10/03 10:36:10;;;;;;;1.02;0.57;;;;;;;20.75;58.10;101337.63;4969516;28;113763;-79
2023/10/03 10:38:41;;;;;;;1.42;0.70;;;;;;;20.68;58.08;101344.50;4929625;28;112925;-79
2023/10/03 10:41:10;;;;;;;1.27;0.70;;;;;;;20.64;58.29;101343.03;4938749;28;124017;-79
2023/10/03 10:44:06;;;;;;;2.65;0.68;;;;;;;20.64;58.57;101343.03;4949893;28;123923;-79
2023/10/03 10:46:37;;;;;;;2.05;0.80;;;;;;;20.67;58.61;101342.78;4962805;28;115366;-80
2023/10/03 10:49:25;;;;;;;1.27;0.82;;;;;;;20.71;58.80;101355.00;4955513;28;114985;-79
2023/10/03 10:51:55;;;;;;;1.98;0.85;;;;;;;20.75;58.41;101356.47;4942205;28;123572;-78
2023/10/03 10:54:24;;;;;;;2.97;0.77;;;;;;;20.79;58.26;101347.19;4932274;28;122495;-78
2023/10/03 10:56:59;;;;;;;3.80;0.93;;;;;;;20.83;58.13;101352.31;4937881;28;113689;-78
2023/10/03 10:59:27;;;;;;;2.65;1.00;;;;;;;20.84;58.16;101354.06;4947944;28;114295;-80
2023/10/03 11:01:57;;;;;;;1.20;0.80;;;;;;;20.85;58.14;101350.34;4950196;28;123548;-79
2023/10/03 11:04:27;;;;;;;2.45;0.80;;;;;;;20.88;57.99;101355.50;4946295;28;124472;-78
2023/10/03 11:06:54;;;;;;;4.40;1.00;;;;;;;20.89;57.98;101357.19;4954782;28;114271;-78
2023/10/03 11:09:23;;;;;;;4.85;1.10;;;;;;;20.92;57.91;101362.34;4946796;28;113764;-79
2023/10/03 11:11:53;;;;;;;5.32;0.98;;;;;;;20.92;57.90;101362.34;4942785;28;123791;-78
2023/10/03 11:14:31;;;;;;;2.08;0.88;;;;;;;20.90;57.94;101369.69;4931978;28;122808;-79
2023/10/03 11:17:00;;;;;;;1.98;0.80;;;;;;;20.89;57.93;101373.34;4942498;28;113965;-78
2023/10/03 11:19:31;;;;;;;1.92;0.70;;;;;;;20.83;57.56;101379.25;4949033;28;114258;-79
2023/10/03 11:21:59;;;;;;;1.58;0.70;;;;;;;20.72;57.46;101404.31;4941252;28;123504;-78
2023/10/03 11:24:28;;;;;;;1.80;0.68;;;;;;;20.56;57.39;101399.25;4962743;28;123019;-78
2023/10/03 11:26:59;;;;;;;2.67;1.05;;;;;;;20.40;57.74;101400.47;4944523;28;114040;-78
2023/10/03 11:29:40;;;;;;;2.65;1.00;;;;;;;20.31;58.23;101395.81;4924905;28;113960;-77